Time;durP1;ratioP1;P1;durP2;ratioP2;P2;SDS_P1;SDS_P2;PMS_P1;PMS_P2;Temp;Humidity;BMP_temperature;BMP_pressure;BME280_temperature;BME280_humidity;BME280_pressure;Samples;Min_cycle;Max_cycle;Signal;HPM_P1;HPM_P2
2024/01/20 00:01:48;;;;;;;13.00;8.90;;;;;;;0.06;100.00;100187.63;86746;282;136032;-75
2024/01/20 00:03:50;;;;;;;12.20;8.50;;;;;;;0.04;100.00;100184.13;86546;286;22587;-73
2024/01/20 00:05:52;;;;;;;14.50;9.30;;;;;;;0.04;100.00;100195.48;86499;283;137781;-74
2024/01/20 00:07:54;;;;;;;14.80;9.80;;;;;;;0.10;100.00;100205.69;86887;283;22680;-73
2024/01/20 00:09:56;;;;;;;13.60;8.20;;;;;;;0.13;100.00;100220.09;88188;280;136462;-72
2024/01/20 00:11:58;;;;;;;11.80;8.70;;;;;;;0.13;100.00;100225.00;87400;287;23747;-75
2024/01/20 00:14:00;;;;;;;15.00;9.70;;;;;;;0.19;100.00;100227.49;86591;286;139202;-74
2024/01/20 00:16:04;;;;;;;14.40;8.30;;;;;;;0.19;100.00;100227.27;86651;286;24008;-74
2024/01/20 00:18:06;;;;;;;15.40;9.90;;;;;;;0.12;100.00;100223.82;86748;282;22566;-76
2024/01/20 00:20:09;;;;;;;14.20;10.40;;;;;;;0.07;100.00;100213.95;86678;277;136310;-72
2024/01/20 00:22:11;;;;;;;14.50;8.20;;;;;;;0.06;100.00;100215.75;86549;284;22676;-74
2024/01/20 00:24:13;;;;;;;14.80;9.90;;;;;;;0.09;100.00;100219.23;86722;281;137632;-72
2024/01/20 00:26:16;;;;;;;14.30;9.80;;;;;;;0.11;100.00;100222.34;86850;277;22567;-74
2024/01/20 00:28:18;;;;;;;13.50;8.50;;;;;;;0.10;100.00;100225.91;86739;282;136648;-75
2024/01/20 00:30:20;;;;;;;15.50;9.50;;;;;;;0.15;100.00;100231.46;86754;285;22761;-72
2024/01/20 00:32:22;;;;;;;15.30;8.80;;;;;;;0.22;100.00;100236.70;86628;281;136748;-73
2024/01/20 00:34:24;;;;;;;12.60;8.70;;;;;;;0.28;100.00;100239.22;86516;286;25155;-71
2024/01/20 00:36:26;;;;;;;15.70;8.60;;;;;;;0.28;100.00;100241.29;86696;285;136402;-71
2024/01/20 00:38:28;;;;;;;10.50;7.70;;;;;;;0.24;100.00;100238.27;86907;284;22583;-75
2024/01/20 00:40:30;;;;;;;10.50;7.60;;;;;;;0.19;100.00;100240.95;86859;275;137204;-74
2024/01/20 00:42:32;;;;;;;12.70;8.60;;;;;;;0.12;100.00;100234.90;86859;282;22570;-74
2024/01/20 00:44:34;;;;;;;12.60;7.80;;;;;;;0.03;100.00;100229.30;87147;274;135986;-73
2024/01/20 00:46:36;;;;;;;13.80;8.30;;;;;;;0.07;100.00;100231.27;87300;270;22608;-74
2024/01/20 00:48:38;;;;;;;13.80;8.10;;;;;;;0.04;100.00;100229.95;87173;267;136681;-72
2024/01/20 00:50:41;;;;;;;14.30;9.10;;;;;;;0.04;100.00;100232.91;87117;279;22562;-73
2024/01/20 00:52:43;;;;;;;17.00;9.00;;;;;;;0.04;100.00;100241.41;87166;267;137437;-72
2024/01/20 00:54:44;;;;;;;13.50;8.90;;;;;;;0.02;100.00;100247.72;87295;267;22568;-73
2024/01/20 00:56:46;;;;;;;11.20;9.10;;;;;;;0.02;100.00;100249.47;87208;267;136054;-71
2024/01/20 00:58:48;;;;;;;13.40;8.20;;;;;;;0.03;100.00;100255.38;87182;274;22572;-73
2024/01/20 01:00:50;;;;;;;12.80;8.30;;;;;;;0.01;100.00;100256.17;87198;267;137157;-74
2024/01/20 01:02:52;;;;;;;12.40;8.60;;;;;;;0.00;100.00;100250.34;87248;271;22571;-74
2024/01/20 01:04:55;;;;;;;14.90;9.80;;;;;;;0.06;100.00;100247.38;87294;271;136507;-71
2024/01/20 01:06:57;;;;;;;14.90;8.80;;;;;;;0.15;100.00;100247.55;87224;270;22595;-76
2024/01/20 01:08:59;;;;;;;12.80;9.50;;;;;;;0.19;100.00;100244.60;87214;269;136365;-76
2024/01/20 01:11:01;;;;;;;13.60;9.40;;;;;;;0.18;100.00;100246.94;87292;267;24036;-69
2024/01/20 01:13:03;;;;;;;12.50;8.60;;;;;;;0.12;100.00;100249.73;87112;270;136837;-72
2024/01/20 01:15:05;;;;;;;13.60;8.70;;;;;;;0.08;100.00;100248.83;90082;274;22373;-70
2024/01/20 01:17:07;;;;;;;13.70;9.50;;;;;;;0.06;100.00;100246.69;88838;263;136873;-72
2024/01/20 01:19:09;;;;;;;10.00;8.40;;;;;;;-0.02;100.00;100248.37;87063;268;25441;-72
2024/01/20 01:21:10;;;;;;;16.20;10.80;;;;;;;-0.04;100.00;100248.57;87088;271;136275;-71
2024/01/20 01:23:12;;;;;;;15.10;9.50;;;;;;;-0.02;100.00;100259.58;87297;271;25239;-73
2024/01/20 01:25:15;;;;;;;12.10;9.00;;;;;;;0.01;100.00;100263.54;87221;271;136746;-71
2024/01/20 01:27:17;;;;;;;12.90;9.10;;;;;;;0.02;100.00;100260.67;87246;278;24030;-71
2024/01/20 01:29:19;;;;;;;13.20;10.30;;;;;;;-0.02;100.00;100265.11;87180;274;136996;-69
2024/01/20 01:31:21;;;;;;;12.80;8.80;;;;;;;-0.04;100.00;100263.05;87298;269;24440;-73
2024/01/20 01:33:23;;;;;;;13.80;10.00;;;;;;;-0.06;100.00;100256.19;87215;278;137097;-72
2024/01/20 01:35:26;;;;;;;13.50;9.70;;;;;;;-0.08;100.00;100254.98;87324;274;22555;-72
2024/01/20 01:37:28;;;;;;;11.10;8.10;;;;;;;-0.09;100.00;100252.48;87260;269;137617;-72
2024/01/20 01:39:29;;;;;;;14.70;10.30;;;;;;;-0.06;100.00;100249.75;87226;270;24154;-71
2024/01/20 01:41:31;;;;;;;15.30;9.00;;;;;;;0.01;100.00;100255.16;87180;278;136835;-73
2024/01/20 01:43:33;;;;;;;14.60;10.20;;;;;;;0.06;100.00;100264.17;87325;271;22564;-73
2024/01/20 01:45:35;;;;;;;16.30;9.50;;;;;;;0.06;100.00;100268.36;87169;271;136345;-73
2024/01/20 01:47:37;;;;;;;13.90;9.00;;;;;;;-0.01;100.00;100268.02;87310;267;23997;-75
2024/01/20 01:49:38;;;;;;;13.30;10.10;;;;;;;-0.06;100.00;100268.77;87177;274;137975;-74
2024/01/20 01:51:42;;;;;;;12.90;9.60;;;;;;;-0.15;100.00;100273.36;87341;274;22637;-74
2024/01/20 01:53:44;;;;;;;14.90;11.00;;;;;;;-0.21;100.00;100279.19;87385;278;137738;-73
2024/01/20 01:55:47;;;;;;;14.90;9.60;;;;;;;-0.24;100.00;100278.39;87327;278;25350;-73
2024/01/20 01:57:53;;;;;;;14.80;9.10;;;;;;;-0.24;100.00;100280.90;87106;271;136532;-72
2024/01/20 01:59:54;;;;;;;13.20;8.50;;;;;;;-0.17;100.00;100281.15;87214;267;25111;-73
2024/01/20 02:01:57;;;;;;;11.90;9.00;;;;;;;-0.13;100.00;100285.63;86945;278;136751;-75
2024/01/20 02:03:59;;;;;;;12.80;9.80;;;;;;;-0.15;100.00;100288.77;87277;269;22549;-72
2024/01/20 02:06:03;;;;;;;12.00;8.90;;;;;;;-0.22;100.00;100290.65;87269;271;135942;-72
2024/01/20 02:08:05;;;;;;;12.80;9.80;;;;;;;-0.28;100.00;100290.25;87245;278;136356;-72
2024/01/20 02:10:09;;;;;;;14.80;10.20;;;;;;;-0.34;100.00;100296.98;87245;270;25246;-73
2024/01/20 02:12:14;;;;;;;14.20;8.20;;;;;;;-0.38;100.00;100306.75;87472;271;136303;-72
2024/01/20 02:14:16;;;;;;;14.50;9.90;;;;;;;-0.39;100.00;100307.89;87441;267;24132;-73
2024/01/20 02:16:19;;;;;;;15.60;9.30;;;;;;;-0.29;100.00;100304.63;87284;278;138370;-73
2024/01/20 02:18:22;;;;;;;14.20;9.70;;;;;;;-0.20;100.00;100308.27;87397;278;22590;-72
2024/01/20 02:20:25;;;;;;;14.60;9.30;;;;;;;-0.23;100.00;100304.67;87315;271;137551;-73
2024/01/20 02:22:28;;;;;;;17.30;10.30;;;;;;;-0.40;100.00;100310.77;87213;274;22576;-73
2024/01/20 02:24:31;;;;;;;14.40;10.00;;;;;;;-0.45;100.00;100318.11;87323;271;136688;-75
2024/01/20 02:26:32;;;;;;;16.30;10.40;;;;;;;-0.49;100.00;100323.62;88275;267;22556;-74
2024/01/20 02:28:34;;;;;;;16.60;11.10;;;;;;;-0.54;100.00;100331.71;89136;278;137453;-71
2024/01/20 02:30:36;;;;;;;17.70;10.40;;;;;;;-0.48;100.00;100331.93;87443;271;23996;-74
2024/01/20 02:32:38;;;;;;;15.90;10.20;;;;;;;-0.30;100.00;100325.88;87147;274;137434;-72
2024/01/20 02:34:40;;;;;;;15.50;11.10;;;;;;;-0.30;100.00;100331.62;87329;266;23407;-72
2024/01/20 02:36:42;;;;;;;17.00;10.10;;;;;;;-0.36;100.00;100330.17;87235;271;137949;-70
2024/01/20 02:38:46;;;;;;;18.00;10.80;;;;;;;-0.41;100.00;100334.41;87350;263;23878;-72
2024/01/20 02:40:50;;;;;;;17.00;10.40;;;;;;;-0.46;100.00;100338.44;87128;271;136212;-73
2024/01/20 02:42:52;;;;;;;17.20;11.50;;;;;;;-0.49;100.00;100346.66;87305;271;24247;-74
2024/01/20 02:44:53;;;;;;;18.80;11.20;;;;;;;-0.52;100.00;100349.88;87170;266;136612;-75
2024/01/20 02:46:56;;;;;;;19.70;10.70;;;;;;;-0.53;100.00;100351.39;87204;267;23961;-71
2024/01/20 02:48:58;;;;;;;12.80;9.80;;;;;;;-0.46;100.00;100354.69;87126;271;137206;-75
2024/01/20 02:51:00;;;;;;;19.90;10.30;;;;;;;-0.31;100.00;100349.88;87269;274;22643;-74
2024/01/20 02:53:03;;;;;;;17.00;12.20;;;;;;;-0.28;100.00;100353.50;87097;279;136920;-73
2024/01/20 02:55:05;;;;;;;16.00;12.20;;;;;;;-0.34;100.00;100357.62;87239;267;22568;-74
2024/01/20 02:57:07;;;;;;;16.90;12.00;;;;;;;-0.40;100.00;100360.14;87361;278;136339;-75
2024/01/20 02:59:09;;;;;;;16.90;11.40;;;;;;;-0.46;100.00;100361.45;87288;278;22653;-73
2024/01/20 03:01:10;;;;;;;19.20;11.30;;;;;;;-0.48;100.00;100364.77;87217;271;136578;-74
2024/01/20 03:03:12;;;;;;;17.10;11.30;;;;;;;-0.51;100.00;100369.34;87363;271;22560;-75
2024/01/20 03:05:16;;;;;;;15.90;9.50;;;;;;;-0.47;100.00;100372.70;87198;271;137171;-75
2024/01/20 03:07:19;;;;;;;17.40;10.50;;;;;;;-0.37;100.00;100375.84;87464;278;22554;-73
2024/01/20 03:09:21;;;;;;;17.70;10.70;;;;;;;-0.31;100.00;100384.41;87060;275;137095;-73
2024/01/20 03:11:23;;;;;;;21.60;13.00;;;;;;;-0.33;100.00;100392.96;87226;269;22563;-73
2024/01/20 03:13:25;;;;;;;17.80;12.80;;;;;;;-0.42;100.00;100394.84;87296;274;136956;-76
2024/01/20 03:15:28;;;;;;;18.60;11.60;;;;;;;-0.48;100.00;100393.91;87374;278;25339;-76
2024/01/20 03:17:30;;;;;;;18.20;11.50;;;;;;;-0.54;100.00;100400.11;87269;278;136979;-76
2024/01/20 03:19:32;;;;;;;17.00;11.50;;;;;;;-0.56;100.00;100405.23;87292;274;22564;-73
2024/01/20 03:21:34;;;;;;;19.60;12.50;;;;;;;-0.60;100.00;100408.79;87196;270;136983;-74
2024/01/20 03:23:38;;;;;;;22.40;13.70;;;;;;;-0.54;100.00;100409.58;87276;271;22566;-76
2024/01/20 03:25:39;;;;;;;23.10;12.80;;;;;;;-0.47;100.00;100409.55;87226;274;137346;-73
2024/01/20 03:27:41;;;;;;;17.70;11.60;;;;;;;-0.44;100.00;100406.33;87344;275;22663;-74
2024/01/20 03:29:43;;;;;;;20.20;12.80;;;;;;;-0.47;100.00;100409.55;87315;278;136722;-74
2024/01/20 03:31:45;;;;;;;26.40;15.30;;;;;;;-0.52;100.00;100413.61;87379;278;22567;-75
2024/01/20 03:33:48;;;;;;;20.70;13.80;;;;;;;-0.55;100.00;100414.69;87211;278;136700;-74
2024/01/20 03:35:50;;;;;;;18.80;13.20;;;;;;;-0.57;100.00;100412.43;87404;267;22652;-73
2024/01/20 03:37:52;;;;;;;20.40;13.60;;;;;;;-0.62;100.00;100411.33;87168;271;136860;-74
2024/01/20 03:39:53;;;;;;;22.60;12.10;;;;;;;-0.66;100.00;100414.84;87180;267;22645;-75
2024/01/20 03:41:56;;;;;;;22.80;13.70;;;;;;;-0.65;100.00;100420.17;87036;271;137712;-76
2024/01/20 03:43:58;;;;;;;19.20;13.00;;;;;;;-0.53;100.00;100425.04;87201;271;22917;-75
2024/01/20 03:45:59;;;;;;;19.70;12.50;;;;;;;-0.34;100.00;100423.39;87162;271;136733;-74
2024/01/20 03:48:01;;;;;;;21.50;13.90;;;;;;;-0.52;100.00;100424.23;87338;278;22579;-75
2024/01/20 03:50:06;;;;;;;17.60;12.20;;;;;;;-0.64;100.00;100429.00;87352;266;22589;-73
2024/01/20 03:52:08;;;;;;;19.40;11.90;;;;;;;-0.68;100.00;100435.06;87235;266;138196;-75
2024/01/20 03:54:10;;;;;;;20.00;13.40;;;;;;;-0.72;100.00;100436.19;87369;271;22651;-75
2024/01/20 03:56:11;;;;;;;19.50;12.10;;;;;;;-0.78;100.00;100440.64;87285;275;137016;-79
2024/01/20 03:58:13;;;;;;;20.20;14.50;;;;;;;-0.73;100.00;100441.02;87352;274;22648;-77
2024/01/20 04:00:15;;;;;;;21.70;14.00;;;;;;;-0.62;100.00;100444.34;87188;266;137506;-67
2024/01/20 04:02:19;;;;;;;20.00;14.30;;;;;;;-0.52;100.00;100447.97;87315;278;22562;-75
2024/01/20 04:04:22;;;;;;;17.90;12.10;;;;;;;-0.48;100.00;100454.36;87329;271;137051;-74
2024/01/20 04:06:24;;;;;;;21.50;13.80;;;;;;;-0.52;100.00;100463.75;87317;271;23804;-73
2024/01/20 04:08:26;;;;;;;24.00;14.90;;;;;;;-0.63;100.00;100462.79;87311;263;136722;-76
2024/01/20 04:10:29;;;;;;;25.50;16.60;;;;;;;-0.74;100.00;100469.46;87301;274;25188;-74
2024/01/20 04:12:31;;;;;;;24.00;14.30;;;;;;;-0.83;100.00;100468.59;87310;278;137117;-73
2024/01/20 04:14:33;;;;;;;23.40;14.50;;;;;;;-0.80;100.00;100473.45;87320;278;24002;-76
2024/01/20 04:16:36;;;;;;;21.50;13.60;;;;;;;-0.71;100.00;100472.42;87262;267;137301;-72
2024/01/20 04:18:38;;;;;;;20.50;12.90;;;;;;;-0.72;100.00;100475.15;87413;274;22580;-75
2024/01/20 04:20:40;;;;;;;25.20;13.00;;;;;;;-0.82;100.00;100475.69;87256;267;136900;-75
2024/01/20 04:22:42;;;;;;;23.50;13.90;;;;;;;-0.94;100.00;100479.00;87335;271;24023;-73
2024/01/20 04:24:44;;;;;;;25.10;13.80;;;;;;;-1.01;100.00;100486.94;87227;278;139642;-77
2024/01/20 04:26:46;;;;;;;25.00;14.60;;;;;;;-1.09;100.00;100493.46;87242;278;22636;-75
2024/01/20 04:28:48;;;;;;;23.00;15.20;;;;;;;-1.10;100.00;100491.12;87269;267;138377;-74
2024/01/20 04:30:50;;;;;;;19.90;12.20;;;;;;;-1.27;100.00;100494.55;87267;271;22562;-74
2024/01/20 04:32:52;;;;;;;23.30;14.00;;;;;;;-1.30;100.00;100494.59;87231;274;138452;-73
2024/01/20 04:34:54;;;;;;;26.50;14.60;;;;;;;-1.29;100.00;100495.23;87361;274;22627;-78
2024/01/20 04:36:55;;;;;;;19.50;12.50;;;;;;;-1.39;100.00;100504.67;87271;267;136546;-78
2024/01/20 04:38:57;;;;;;;19.30;14.30;;;;;;;-1.49;100.00;100495.59;87331;278;22574;-75
2024/01/20 04:41:00;;;;;;;24.20;15.50;;;;;;;-1.47;100.00;100505.89;87368;278;136709;-68
2024/01/20 04:43:02;;;;;;;21.60;14.00;;;;;;;-1.43;100.00;100505.95;87707;266;23599;-75
2024/01/20 04:45:06;;;;;;;18.00;10.80;;;;;;;-1.30;100.00;100507.01;88196;271;139718;-74
2024/01/20 04:47:08;;;;;;;23.50;14.20;;;;;;;-1.13;100.00;100505.48;88470;267;22558;-76
2024/01/20 04:49:10;;;;;;;21.70;13.30;;;;;;;-1.08;100.00;100507.35;87290;267;138829;-72
2024/01/20 04:51:12;;;;;;;21.50;12.80;;;;;;;-1.10;100.00;100508.20;87469;271;22626;-77
2024/01/20 04:53:14;;;;;;;23.60;13.10;;;;;;;-1.15;100.00;100509.95;87298;270;136518;-76
2024/01/20 04:55:16;;;;;;;17.60;12.50;;;;;;;-1.18;100.00;100506.35;87499;278;22555;-76
2024/01/20 04:57:20;;;;;;;21.70;13.80;;;;;;;-1.24;100.00;100512.64;87324;269;138069;-74
2024/01/20 04:59:23;;;;;;;21.80;13.80;;;;;;;-1.27;100.00;100515.00;87457;275;22641;-75
2024/01/20 05:01:25;;;;;;;21.50;11.80;;;;;;;-1.23;100.00;100514.30;87357;271;137370;-75
2024/01/20 05:03:27;;;;;;;19.00;12.70;;;;;;;-1.13;100.00;100520.27;87347;278;22558;-74
2024/01/20 05:05:29;;;;;;;17.70;12.00;;;;;;;-1.04;100.00;100519.15;87234;278;137360;-75
2024/01/20 05:07:30;;;;;;;19.50;13.20;;;;;;;-1.04;100.00;100519.60;87387;278;22550;-73
2024/01/20 05:09:32;;;;;;;23.50;15.30;;;;;;;-1.05;100.00;100523.39;87224;274;136572;-76
2024/01/20 05:11:34;;;;;;;22.10;15.60;;;;;;;-1.10;100.00;100533.10;87517;270;24035;-74
2024/01/20 05:13:36;;;;;;;20.20;14.00;;;;;;;-1.12;100.00;100536.94;87252;270;137867;-74
2024/01/20 05:15:39;;;;;;;22.20;15.30;;;;;;;-1.15;100.00;100540.14;87410;271;22569;-74
2024/01/20 05:17:41;;;;;;;29.00;15.20;;;;;;;-1.10;100.00;100544.27;87366;271;136754;-75
2024/01/20 05:19:43;;;;;;;23.30;14.40;;;;;;;-1.02;100.00;100547.55;87349;271;23748;-76
2024/01/20 05:21:46;;;;;;;22.90;14.70;;;;;;;-0.96;100.00;100548.42;87178;270;136641;-77
2024/01/20 05:23:48;;;;;;;23.90;15.00;;;;;;;-0.97;100.00;100551.40;87346;278;25156;-77
2024/01/20 05:25:50;;;;;;;20.70;13.50;;;;;;;-1.02;100.00;100551.55;87447;271;136633;-73
2024/01/20 05:27:52;;;;;;;22.60;14.30;;;;;;;-1.10;100.00;100550.20;87387;267;24023;-72
2024/01/20 05:29:53;;;;;;;22.40;13.80;;;;;;;-1.15;100.00;100565.44;87373;271;137859;-78
2024/01/20 05:31:55;;;;;;;19.40;12.60;;;;;;;-1.17;100.00;100573.39;87370;271;22545;-76
2024/01/20 05:33:58;;;;;;;19.30;12.80;;;;;;;-1.16;100.00;100582.41;87295;270;136692;-76
2024/01/20 05:36:00;;;;;;;34.70;15.00;;;;;;;-1.09;100.00;100582.05;87322;274;24010;-75
2024/01/20 05:38:02;;;;;;;20.60;14.70;;;;;;;-0.94;100.00;100586.48;87227;271;136751;-73
2024/01/20 05:40:05;;;;;;;19.80;13.70;;;;;;;-0.93;100.00;100591.73;87136;278;137125;-75
2024/01/20 05:42:07;;;;;;;22.00;15.00;;;;;;;-0.96;100.00;100596.88;87396;269;23757;-76
2024/01/20 05:44:09;;;;;;;20.80;14.00;;;;;;;-1.03;100.00;100598.38;87103;269;139022;-77
2024/01/20 05:46:10;;;;;;;25.50;16.50;;;;;;;-1.17;100.00;100600.07;87221;271;22555;-74
2024/01/20 05:48:12;;;;;;;20.90;13.80;;;;;;;-1.24;100.00;100599.86;87306;278;136913;-73
2024/01/20 05:50:15;;;;;;;20.40;13.90;;;;;;;-1.29;100.00;100608.77;87223;279;22758;-68
2024/01/20 05:52:17;;;;;;;20.30;13.40;;;;;;;-1.24;100.00;100609.58;87072;270;138666;-75
2024/01/20 05:54:18;;;;;;;16.70;11.70;;;;;;;-1.15;100.00;100606.04;87250;269;22652;-75
2024/01/20 05:56:21;;;;;;;21.10;12.20;;;;;;;-1.16;100.00;100608.73;87207;266;136650;-71
2024/01/20 05:58:23;;;;;;;25.80;13.40;;;;;;;-1.24;100.00;100612.79;87400;271;22562;-67
2024/01/20 06:00:25;;;;;;;18.70;12.40;;;;;;;-1.33;100.00;100621.55;87188;266;137838;-73
2024/01/20 06:02:27;;;;;;;21.70;13.30;;;;;;;-1.44;100.00;100620.52;87327;270;24000;-74
2024/01/20 06:04:28;;;;;;;23.30;13.70;;;;;;;-1.53;100.00;100619.27;87205;275;136634;-76
2024/01/20 06:06:30;;;;;;;23.00;11.60;;;;;;;-1.52;100.00;100626.70;87364;267;22576;-76
2024/01/20 06:08:35;;;;;;;20.00;11.60;;;;;;;-1.43;100.00;100636.52;87170;271;138514;-76
2024/01/20 06:10:37;;;;;;;15.80;11.60;;;;;;;-1.37;100.00;100644.33;87399;271;22567;-74
2024/01/20 06:12:39;;;;;;;18.20;12.10;;;;;;;-1.40;100.00;100646.64;87149;271;136707;-76
2024/01/20 06:14:41;;;;;;;24.50;13.60;;;;;;;-1.47;100.00;100655.30;87257;271;24029;-74
2024/01/20 06:16:42;;;;;;;20.40;12.40;;;;;;;-1.51;100.00;100653.31;87055;280;136444;-74
2024/01/20 06:18:46;;;;;;;23.50;14.30;;;;;;;-1.56;100.00;100655.88;87321;271;22723;-74
2024/01/20 06:20:48;;;;;;;21.00;14.30;;;;;;;-1.60;100.00;100659.81;87223;271;136947;-68
2024/01/20 06:22:50;;;;;;;24.40;14.60;;;;;;;-1.63;100.00;100664.54;87346;267;24030;-72
2024/01/20 06:24:53;;;;;;;18.60;10.70;;;;;;;-1.59;100.00;100672.27;87162;269;137511;-72
2024/01/20 06:26:56;;;;;;;20.60;13.40;;;;;;;-1.51;100.00;100672.48;87246;269;22567;-75
2024/01/20 06:28:58;;;;;;;17.70;12.40;;;;;;;-1.53;100.00;100676.94;87200;270;136381;-75
2024/01/20 06:31:01;;;;;;;19.30;12.80;;;;;;;-1.60;100.00;100668.13;87240;270;25338;-74
2024/01/20 06:33:04;;;;;;;18.60;12.60;;;;;;;-1.52;100.00;100670.61;87218;271;136910;-74
2024/01/20 06:35:08;;;;;;;25.30;15.60;;;;;;;-1.52;100.00;100672.02;87042;271;22589;-73
2024/01/20 06:37:10;;;;;;;20.00;13.00;;;;;;;-1.59;100.00;100669.15;87274;266;136805;-75
2024/01/20 06:39:12;;;;;;;22.50;14.70;;;;;;;-1.57;100.00;100667.80;87264;271;22575;-76
2024/01/20 06:41:15;;;;;;;25.50;16.80;;;;;;;-1.45;100.00;100669.27;87303;269;137320;-74
2024/01/20 06:43:16;;;;;;;19.90;12.10;;;;;;;-1.34;100.00;100672.55;87275;274;25226;-75
2024/01/20 06:45:18;;;;;;;21.20;13.90;;;;;;;-1.41;100.00;100674.93;87195;278;136772;-75
2024/01/20 06:47:20;;;;;;;21.00;12.90;;;;;;;-1.47;100.00;100670.63;87380;274;22559;-76
2024/01/20 06:49:22;;;;;;;19.70;13.40;;;;;;;-1.39;100.00;100673.58;87194;269;136795;-78
2024/01/20 06:51:26;;;;;;;25.10;16.40;;;;;;;-1.38;100.00;100677.15;87308;266;25085;-77
2024/01/20 06:53:30;;;;;;;29.50;18.30;;;;;;;-1.45;100.00;100682.52;87406;268;136191;-75
2024/01/20 06:55:32;;;;;;;20.60;15.20;;;;;;;-1.54;100.00;100682.76;87661;278;22577;-79
2024/01/20 06:57:34;;;;;;;28.90;17.40;;;;;;;-1.50;100.00;100683.04;87597;263;137343;-78
2024/01/20 06:59:37;;;;;;;22.50;15.30;;;;;;;-1.37;100.00;100686.71;87742;271;23996;-74
2024/01/20 07:01:39;;;;;;;22.50;15.40;;;;;;;-1.28;100.00;100693.42;87675;278;137162;-79
2024/01/20 07:03:42;;;;;;;19.70;14.30;;;;;;;-1.27;100.00;100694.56;88500;278;22528;-73
2024/01/20 07:05:44;;;;;;;19.50;13.40;;;;;;;-1.31;100.00;100696.23;88752;274;137456;-75
2024/01/20 07:07:46;;;;;;;27.20;15.80;;;;;;;-1.33;100.00;100701.12;87610;270;24112;-73
2024/01/20 07:09:48;;;;;;;21.00;14.20;;;;;;;-1.34;100.00;100697.88;87229;269;136660;-74
2024/01/20 07:11:49;;;;;;;23.40;14.90;;;;;;;-1.35;100.00;100698.63;87293;266;22571;-72
2024/01/20 07:13:51;;;;;;;21.00;14.20;;;;;;;-1.28;100.00;100697.09;87130;269;136604;-72
2024/01/20 07:15:53;;;;;;;26.30;17.00;;;;;;;-1.31;100.00;100700.09;87234;269;22571;-76
2024/01/20 07:17:57;;;;;;;28.20;15.40;;;;;;;-1.22;100.00;100707.35;87080;266;139219;-66
2024/01/20 07:20:00;;;;;;;26.30;15.20;;;;;;;-1.04;100.00;100712.00;87300;269;22603;-74
2024/01/20 07:22:04;;;;;;;21.60;13.20;;;;;;;-0.98;100.00;100719.98;87245;269;24023;-71
2024/01/20 07:24:06;;;;;;;23.20;14.70;;;;;;;-0.96;100.00;100726.83;87312;274;137911;-73
2024/01/20 07:26:08;;;;;;;26.70;15.10;;;;;;;-0.98;100.00;100728.36;87420;267;24649;-73
2024/01/20 07:28:10;;;;;;;25.20;15.90;;;;;;;-1.01;100.00;100726.46;87131;271;138253;-73
2024/01/20 07:30:12;;;;;;;22.70;14.10;;;;;;;-1.05;100.00;100732.31;87937;269;22577;-72
2024/01/20 07:32:15;;;;;;;20.00;13.80;;;;;;;-1.10;100.00;100739.59;87194;269;138183;-72
2024/01/20 07:34:16;;;;;;;20.60;13.40;;;;;;;-1.20;100.00;100742.59;87022;278;22548;-73
2024/01/20 07:36:19;;;;;;;18.50;12.70;;;;;;;-1.12;100.00;100750.09;86890;269;138726;-73
2024/01/20 07:38:21;;;;;;;22.10;14.80;;;;;;;-1.03;100.00;100751.88;86973;271;22954;-73
2024/01/20 07:40:22;;;;;;;23.30;13.70;;;;;;;-1.02;100.00;100747.10;86869;271;136973;-72
2024/01/20 07:42:24;;;;;;;17.10;12.00;;;;;;;-1.07;100.00;100748.00;87107;269;22573;-72
2024/01/20 07:44:26;;;;;;;18.60;12.90;;;;;;;-1.13;100.00;100746.10;86923;271;136769;-70
2024/01/20 07:46:28;;;;;;;20.60;13.50;;;;;;;-1.16;100.00;100746.84;87022;278;22645;-72
2024/01/20 07:48:29;;;;;;;22.90;12.10;;;;;;;-1.19;100.00;100748.27;86822;278;136769;-73
2024/01/20 07:50:33;;;;;;;23.60;13.50;;;;;;;-1.18;100.00;100756.40;86932;270;358911;-73
2024/01/20 07:52:37;;;;;;;16.90;11.50;;;;;;;-1.10;100.00;100758.11;86959;270;137598;-72
2024/01/20 07:54:41;;;;;;;21.60;14.50;;;;;;;-0.97;100.00;100758.80;87257;271;22697;-75
2024/01/20 07:56:43;;;;;;;22.50;14.00;;;;;;;-0.92;100.00;100762.84;86893;274;137263;-70
2024/01/20 07:58:45;;;;;;;15.70;10.60;;;;;;;-0.93;100.00;100768.17;86838;270;23321;-73
2024/01/20 08:00:47;;;;;;;18.80;11.90;;;;;;;-0.95;100.00;100766.75;86897;278;136791;-72
2024/01/20 08:02:49;;;;;;;16.40;12.20;;;;;;;-0.97;100.00;100764.08;86874;270;24862;-70
2024/01/20 08:04:51;;;;;;;19.00;12.90;;;;;;;-0.98;100.00;100765.52;87403;273;136759;-71
2024/01/20 08:06:54;;;;;;;18.70;12.60;;;;;;;-0.98;100.00;100763.08;87062;269;22564;-75
2024/01/20 08:08:56;;;;;;;24.50;13.80;;;;;;;-0.91;100.00;100767.00;86919;269;137192;-73
2024/01/20 08:10:58;;;;;;;18.50;11.40;;;;;;;-0.76;100.00;100770.68;87198;269;22583;-71
2024/01/20 08:13:00;;;;;;;17.90;12.40;;;;;;;-0.62;100.00;100770.63;87017;266;138249;-71
2024/01/20 08:15:02;;;;;;;20.30;13.40;;;;;;;-0.50;100.00;100775.05;87094;274;24667;-73
2024/01/20 08:17:04;;;;;;;19.80;12.60;;;;;;;-0.54;100.00;100781.39;87018;267;136339;-74
2024/01/20 08:19:05;;;;;;;19.70;13.00;;;;;;;-0.57;100.00;100783.52;86901;272;22571;-73
2024/01/20 08:21:09;;;;;;;22.50;12.80;;;;;;;-0.55;100.00;100785.99;86813;270;137061;-71
2024/01/20 08:23:11;;;;;;;20.60;12.90;;;;;;;-0.51;100.00;100786.77;86895;270;22571;-70
2024/01/20 08:25:14;;;;;;;20.60;14.20;;;;;;;-0.55;100.00;100789.70;86929;270;137197;-69
2024/01/20 08:27:16;;;;;;;22.10;15.20;;;;;;;-0.62;100.00;100794.31;89946;266;24176;-72
2024/01/20 08:29:18;;;;;;;25.70;16.80;;;;;;;-0.68;100.00;100793.34;89274;270;136190;-72
2024/01/20 08:31:20;;;;;;;20.50;14.60;;;;;;;-0.64;100.00;100795.83;86926;278;25092;-74
2024/01/20 08:33:22;;;;;;;21.10;13.00;;;;;;;-0.49;100.00;100795.89;86993;271;137331;-74
2024/01/20 08:35:24;;;;;;;22.60;13.80;;;;;;;-0.39;100.00;100801.31;87032;266;22567;-74
2024/01/20 08:37:26;;;;;;;22.20;15.10;;;;;;;-0.41;100.00;100799.20;86952;269;136550;-72
2024/01/20 08:39:28;;;;;;;18.30;13.00;;;;;;;-0.58;100.00;100802.05;87301;267;22555;-73
2024/01/20 08:41:30;;;;;;;22.10;14.80;;;;;;;-0.63;100.00;100808.34;87170;269;136560;-73
2024/01/20 08:43:32;;;;;;;21.40;14.30;;;;;;;-0.64;100.00;100806.80;87624;270;25086;-73
2024/01/20 08:45:35;;;;;;;21.90;13.70;;;;;;;-0.63;100.00;100805.70;88008;273;136235;-73
2024/01/20 08:47:37;;;;;;;22.60;14.20;;;;;;;-0.62;100.00;100806.48;87642;270;23044;-73
2024/01/20 08:49:40;;;;;;;22.00;14.50;;;;;;;-0.63;100.00;100801.90;87575;269;139715;-74
2024/01/20 08:51:41;;;;;;;26.10;14.90;;;;;;;-0.65;100.00;100802.73;87672;265;22568;-73
2024/01/20 08:53:44;;;;;;;21.50;13.80;;;;;;;-0.57;100.00;100803.22;87592;277;136789;-73
2024/01/20 08:55:46;;;;;;;22.10;12.70;;;;;;;-0.43;100.00;100803.15;87823;270;22605;-74
2024/01/20 08:57:48;;;;;;;18.80;13.30;;;;;;;-0.52;100.00;100799.23;87737;270;136583;-73
2024/01/20 08:59:50;;;;;;;20.90;11.90;;;;;;;-0.64;100.00;100800.73;88000;265;22570;-71
2024/01/20 09:01:51;;;;;;;29.80;14.60;;;;;;;-0.73;100.00;100798.73;87855;269;136291;-73
2024/01/20 09:03:53;;;;;;;24.20;15.90;;;;;;;-0.71;100.00;100795.99;87895;269;23972;-73
2024/01/20 09:05:55;;;;;;;20.50;13.10;;;;;;;-0.70;100.00;100797.70;87815;266;136421;-72
2024/01/20 09:07:57;;;;;;;19.00;13.90;;;;;;;-0.75;100.00;100802.21;87706;265;22558;-73
2024/01/20 09:10:01;;;;;;;19.90;13.40;;;;;;;-0.72;100.00;100807.91;87485;266;136202;-73
2024/01/20 09:12:04;;;;;;;18.40;13.00;;;;;;;-0.68;100.00;100811.30;87557;274;22506;-75
2024/01/20 09:14:05;;;;;;;23.00;12.80;;;;;;;-0.56;100.00;100811.73;87752;265;24120;-74
2024/01/20 09:16:09;;;;;;;19.00;10.80;;;;;;;-0.41;100.00;100810.38;87634;265;138038;-76